Estación de Ninhue INIA

Ultimos registro cada 15 minutos 29
Estación Fecha / Hora Temperatura Humedad Lluvia Velocidad Dirección Radiación Presion
29 Ninhue INIA 04-05-2026 07:00 10,8 91,9 0 0 0 0 1005
28 Ninhue INIA 04-05-2026 06:45 10,7 91,8 0 0 0 0 1006
27 Ninhue INIA 04-05-2026 06:30 10,7 91,7 0 0 0 0 1005
26 Ninhue INIA 04-05-2026 06:15 10,6 91,7 0 0 0 0 1005
25 Ninhue INIA 04-05-2026 06:00 10,7 91,5 0 0 0 0 1005
24 Ninhue INIA 04-05-2026 05:45 10,8 91,6 0 0 0 0 1005
23 Ninhue INIA 04-05-2026 05:30 10,8 91,4 0 0 0 0 1005
22 Ninhue INIA 04-05-2026 05:15 10,9 91,4 0 0 0 0 1005
21 Ninhue INIA 04-05-2026 05:00 11,1 91,1 0 0 0 0 1005
20 Ninhue INIA 04-05-2026 04:45 11,1 91,3 0 0 0 0 1005
19 Ninhue INIA 04-05-2026 04:30 11,1 91,3 0 0 0 0 1005
18 Ninhue INIA 04-05-2026 04:15 11 91,2 0 0 0 0 1005
17 Ninhue INIA 04-05-2026 04:00 11 91,1 0 0 0 0 1005
16 Ninhue INIA 04-05-2026 03:45 11 91,2 0 0 0 0 1005
15 Ninhue INIA 04-05-2026 03:30 11 91,1 0 0 0 0 1005
14 Ninhue INIA 04-05-2026 03:15 11 91,1 0 0 0 0 1005
13 Ninhue INIA 04-05-2026 03:00 11 90,9 0 0 0 0 1005
12 Ninhue INIA 04-05-2026 02:45 10,9 91 0 0 0 0 1005
11 Ninhue INIA 04-05-2026 02:30 11 90,8 0 0 0 0 1005
10 Ninhue INIA 04-05-2026 02:15 10,9 90,9 0 0 0 0 1005
9 Ninhue INIA 04-05-2026 02:00 10,8 90,7 0 0 0 0 1006
8 Ninhue INIA 04-05-2026 01:45 10,8 90,6 0 0 0 0 1006
7 Ninhue INIA 04-05-2026 01:30 10,8 90,7 0 0 0 0 1006
6 Ninhue INIA 04-05-2026 01:15 10,9 90,4 0 0 0 0 1006
5 Ninhue INIA 04-05-2026 01:00 10,9 90,4 0 0 0 0 1007
4 Ninhue INIA 04-05-2026 00:45 11,1 90,1 0 0 0 0 1007
3 Ninhue INIA 04-05-2026 00:30 11,6 89,6 0 0 0 0 1007
2 Ninhue INIA 04-05-2026 00:15 11,3 90,9 0 0 0 0 1007
1 Ninhue INIA 04-05-2026 00:00 11 91 0 0 0 0 1007